Time;durP1;ratioP1;P1;durP2;ratioP2;P2;SDS_P1;SDS_P2;PMS_P1;PMS_P2;Temp;Humidity;BMP_temperature;BMP_pressure;BME280_temperature;BME280_humidity;BME280_pressure;Samples;Min_cycle;Max_cycle;Signal;HPM_P1;HPM_P2
2023/10/20 00:00:51;;;;;;;0.30;0.30;;;;;;;16.35;100.00;97193.97;5076870;28;20051;-57
2023/10/20 00:03:17;;;;;;;0.30;0.30;;;;;;;16.34;100.00;97194.94;5092112;28;20028;-58
2023/10/20 00:05:43;;;;;;;0.30;0.30;;;;;;;16.33;100.00;97192.41;5081027;28;20032;-57
2023/10/20 00:08:08;;;;;;;0.30;0.30;;;;;;;16.32;100.00;97177.34;5071910;28;20060;-58
2023/10/20 00:10:35;;;;;;;0.40;0.40;;;;;;;16.33;100.00;97171.81;5073375;28;20028;-58
2023/10/20 00:13:02;;;;;;;0.30;0.30;;;;;;;16.33;100.00;97145.00;5072581;28;20048;-58
2023/10/20 00:15:28;;;;;;;0.30;0.30;;;;;;;16.36;100.00;97154.59;5090797;28;20024;-57
2023/10/20 00:17:53;;;;;;;0.30;0.30;;;;;;;16.38;100.00;97152.56;5087103;28;20032;-57
2023/10/20 00:20:19;;;;;;;0.35;0.35;;;;;;;16.36;100.00;97151.91;5090274;28;20510;-58
2023/10/20 00:22:45;;;;;;;0.30;0.30;;;;;;;16.36;100.00;97154.59;5085619;28;20143;-58
2023/10/20 00:25:11;;;;;;;0.40;0.40;;;;;;;16.30;100.00;97149.81;5088240;28;20022;-57
2023/10/20 00:27:37;;;;;;;0.38;0.38;;;;;;;16.29;100.00;97145.47;5089774;28;20024;-57
2023/10/20 00:30:03;;;;;;;0.40;0.40;;;;;;;16.26;100.00;97146.59;5075595;28;20036;-58
2023/10/20 00:32:30;;;;;;;0.30;0.30;;;;;;;16.28;100.00;97157.16;5082791;28;20202;-58
2023/10/20 00:34:57;;;;;;;0.30;0.30;;;;;;;16.25;100.00;97155.66;5067635;28;20502;-58
2023/10/20 00:37:23;;;;;;;0.30;0.30;;;;;;;16.25;100.00;97157.47;5071063;28;20142;-57
2023/10/20 00:39:49;;;;;;;0.30;0.30;;;;;;;16.23;100.00;97151.41;5071056;28;20498;-58
2023/10/20 00:42:14;;;;;;;0.30;0.30;;;;;;;16.25;100.00;97152.13;5073265;28;20031;-57
2023/10/20 00:44:40;;;;;;;0.40;0.40;;;;;;;16.22;100.00;97155.13;5078927;28;20034;-58
2023/10/20 00:47:05;;;;;;;0.40;0.40;;;;;;;16.20;100.00;97149.06;5091245;28;20078;-58
2023/10/20 00:49:32;;;;;;;0.50;0.50;;;;;;;16.18;100.00;97145.69;5075888;28;20043;-57
2023/10/20 00:51:59;;;;;;;0.40;0.40;;;;;;;16.14;100.00;97134.44;5080431;28;20031;-57
2023/10/20 00:54:24;;;;;;;0.40;0.40;;;;;;;16.12;100.00;97135.56;5084717;28;20055;-57
2023/10/20 00:56:51;;;;;;;0.40;0.40;;;;;;;16.07;100.00;97127.16;5090973;28;20495;-57
2023/10/20 00:59:16;;;;;;;0.40;0.40;;;;;;;16.06;100.00;97125.47;5090740;28;20099;-58
2023/10/20 01:01:42;;;;;;;0.40;0.40;;;;;;;16.04;100.00;97127.47;5086004;28;20142;-57
2023/10/20 01:04:08;;;;;;;0.35;0.35;;;;;;;16.01;100.00;97127.78;5090151;28;20495;-58
2023/10/20 01:06:36;;;;;;;0.40;0.40;;;;;;;16.01;100.00;97117.06;5090028;28;20032;-58
2023/10/20 01:09:01;;;;;;;0.40;0.40;;;;;;;16.07;100.00;97095.81;5086315;28;20032;-58
2023/10/20 01:11:27;;;;;;;0.40;0.40;;;;;;;16.08;100.00;97102.84;5090402;28;20054;-57
2023/10/20 01:13:52;;;;;;;0.40;0.40;;;;;;;16.06;100.00;97098.66;5089646;28;20627;-57
2023/10/20 01:16:18;;;;;;;0.40;0.40;;;;;;;16.14;100.00;97085.31;5090335;28;20194;-58
2023/10/20 01:18:44;;;;;;;0.38;0.38;;;;;;;16.18;100.00;97081.31;5085903;28;20024;-58
2023/10/20 01:21:09;;;;;;;0.40;0.40;;;;;;;16.15;100.00;97079.81;5089167;28;20039;-58
2023/10/20 01:23:35;;;;;;;0.40;0.40;;;;;;;16.16;100.00;97075.28;5085738;28;20027;-58
2023/10/20 01:26:02;;;;;;;0.40;0.40;;;;;;;16.13;100.00;97063.00;5089025;28;20039;-58
2023/10/20 01:28:27;;;;;;;0.40;0.40;;;;;;;16.07;100.00;97035.97;5086694;28;21653;-57
2023/10/20 01:30:52;;;;;;;0.40;0.40;;;;;;;16.12;100.00;97055.13;5086553;28;20101;-58
2023/10/20 01:33:18;;;;;;;0.40;0.40;;;;;;;16.09;100.00;97053.63;5090368;28;20020;-57
2023/10/20 01:35:43;;;;;;;0.30;0.30;;;;;;;16.08;100.00;97041.19;5078943;28;20032;-58
2023/10/20 01:38:09;;;;;;;0.40;0.40;;;;;;;16.07;100.00;97033.31;5069780;28;20480;-58
2023/10/20 01:40:34;;;;;;;0.40;0.40;;;;;;;16.12;100.00;97022.94;5069622;28;20036;-58
2023/10/20 01:42:59;;;;;;;0.40;0.40;;;;;;;16.08;100.00;97021.59;5069712;28;20727;-58
2023/10/20 01:45:25;;;;;;;0.40;0.40;;;;;;;16.05;100.00;97005.78;5084164;28;20142;-57
2023/10/20 01:47:50;;;;;;;0.40;0.40;;;;;;;16.06;100.00;97002.13;5090096;28;20031;-57
2023/10/20 01:50:16;;;;;;;0.40;0.40;;;;;;;16.06;100.00;96986.06;5082917;28;20519;-58
2023/10/20 01:52:42;;;;;;;0.30;0.30;;;;;;;16.09;100.00;96975.00;5074121;28;20027;-58
2023/10/20 01:55:09;;;;;;;0.40;0.40;;;;;;;16.09;100.00;96970.50;5088271;28;20127;-58
2023/10/20 01:57:35;;;;;;;0.40;0.40;;;;;;;16.09;100.00;96962.44;5085944;28;20108;-58
2023/10/20 02:00:01;;;;;;;0.40;0.40;;;;;;;16.11;100.00;96962.28;5089962;28;20123;-57
2023/10/20 02:02:27;;;;;;;0.30;0.30;;;;;;;16.10;100.00;96952.53;5086212;28;20024;-57
2023/10/20 02:04:52;;;;;;;0.40;0.40;;;;;;;16.13;100.00;96954.94;5089429;28;20043;-57
2023/10/20 02:07:18;;;;;;;0.30;0.30;;;;;;;16.10;100.00;96945.34;5088329;28;20037;-57
2023/10/20 02:09:43;;;;;;;0.40;0.40;;;;;;;16.06;100.00;96933.28;5070849;28;20482;-58
2023/10/20 02:12:10;;;;;;;0.38;0.38;;;;;;;16.06;100.00;96932.44;5069080;28;20068;-58
2023/10/20 02:14:35;;;;;;;0.30;0.30;;;;;;;16.05;100.00;96930.72;5073025;28;20467;-58
2023/10/20 02:17:01;;;;;;;0.38;0.38;;;;;;;16.05;100.00;96915.50;5088400;28;20020;-58
2023/10/20 02:19:26;;;;;;;0.30;0.30;;;;;;;16.07;100.00;96907.28;5086629;28;20024;-58
2023/10/20 02:21:52;;;;;;;0.40;0.40;;;;;;;16.06;100.00;96906.47;5073713;28;20107;-58
2023/10/20 02:24:17;;;;;;;0.40;0.40;;;;;;;16.06;100.00;96894.88;5088467;28;20017;-57
2023/10/20 02:26:45;;;;;;;0.40;0.40;;;;;;;16.07;100.00;96891.19;5087581;28;20012;-57
2023/10/20 02:29:11;;;;;;;0.40;0.40;;;;;;;16.02;100.00;96872.06;5084553;28;20697;-58
2023/10/20 02:31:37;;;;;;;0.40;0.40;;;;;;;16.04;100.00;96873.59;5069346;28;20028;-57
2023/10/20 02:34:02;;;;;;;0.30;0.30;;;;;;;16.04;100.00;96853.97;5069261;28;20036;-57
2023/10/20 02:36:27;;;;;;;0.40;0.40;;;;;;;16.06;100.00;96846.63;5069033;28;20032;-57
2023/10/20 02:38:53;;;;;;;0.40;0.40;;;;;;;16.07;100.00;96843.78;5071603;28;20384;-58
2023/10/20 02:41:19;;;;;;;0.38;0.38;;;;;;;16.09;100.00;96846.31;5071135;28;20028;-57
2023/10/20 02:43:45;;;;;;;0.32;0.32;;;;;;;16.11;100.00;96855.03;5069919;28;20025;-57
2023/10/20 02:46:12;;;;;;;0.38;0.38;;;;;;;16.07;100.00;96854.50;5071051;28;20043;-57
2023/10/20 02:48:38;;;;;;;0.40;0.40;;;;;;;16.07;100.00;96864.38;5069183;28;20028;-57
2023/10/20 02:51:17;;;;;;;0.40;0.40;;;;;;;16.08;100.00;96858.03;5068154;28;20031;-57
2023/10/20 02:53:43;;;;;;;0.40;0.40;;;;;;;16.08;100.00;96858.84;5076997;28;20040;-58
2023/10/20 02:56:16;;;;;;;0.40;0.40;;;;;;;16.12;100.00;96840.63;5087593;28;20052;-58
2023/10/20 02:58:44;;;;;;;0.40;0.40;;;;;;;16.09;100.00;96830.22;5085959;28;20036;-58
2023/10/20 03:01:13;;;;;;;0.40;0.40;;;;;;;16.02;100.00;96810.41;5067945;28;20497;-57
2023/10/20 03:03:38;;;;;;;0.32;0.32;;;;;;;16.04;100.00;96800.38;5068326;28;20534;-57
2023/10/20 03:06:05;;;;;;;0.40;0.40;;;;;;;16.04;100.00;96803.03;5068065;28;20056;-57
2023/10/20 03:08:31;;;;;;;0.40;0.40;;;;;;;16.01;100.00;96784.59;5073446;28;20108;-57
2023/10/20 03:10:58;;;;;;;0.40;0.40;;;;;;;16.00;100.00;96762.31;5071326;28;20033;-58
2023/10/20 03:13:25;;;;;;;0.40;0.40;;;;;;;15.98;100.00;96752.75;5072150;28;20039;-57
2023/10/20 03:15:52;;;;;;;0.38;0.38;;;;;;;16.01;100.00;96752.44;5072255;28;20452;-58
2023/10/20 03:18:17;;;;;;;0.40;0.40;;;;;;;16.05;100.00;96748.41;5076400;28;20028;-57
2023/10/20 03:20:43;;;;;;;0.40;0.40;;;;;;;16.06;100.00;96740.22;5091483;28;20024;-58
2023/10/20 03:23:15;;;;;;;0.30;0.30;;;;;;;16.07;100.00;96728.50;5087852;28;20025;-57
2023/10/20 03:25:41;;;;;;;0.30;0.30;;;;;;;16.11;100.00;96720.97;5092533;28;20024;-57
2023/10/20 03:28:07;;;;;;;0.40;0.40;;;;;;;16.09;100.00;96701.50;5092632;28;20028;-57
2023/10/20 03:30:38;;;;;;;0.40;0.40;;;;;;;16.05;100.00;96695.63;5092423;28;20031;-57
2023/10/20 03:33:08;;;;;;;0.40;0.40;;;;;;;16.11;100.00;96667.34;5082350;28;20128;-57
2023/10/20 03:35:33;;;;;;;0.40;0.40;;;;;;;16.13;100.00;96649.25;5074594;28;20131;-57
2023/10/20 03:38:00;;;;;;;0.40;0.40;;;;;;;16.15;100.00;96636.50;5072179;28;20127;-58
2023/10/20 03:40:37;;;;;;;0.40;0.40;;;;;;;16.17;100.00;96645.22;5075491;28;20031;-57
2023/10/20 03:43:09;;;;;;;0.30;0.30;;;;;;;16.19;100.00;96637.84;5092422;28;20031;-57
2023/10/20 03:45:41;;;;;;;0.30;0.30;;;;;;;16.19;100.00;96638.69;5080784;28;20438;-57
2023/10/20 03:48:10;;;;;;;0.30;0.30;;;;;;;16.22;100.00;96645.56;5089512;28;20031;-57
2023/10/20 03:50:38;;;;;;;0.30;0.30;;;;;;;16.22;100.00;96642.88;5082470;28;20055;-57
2023/10/20 03:53:04;;;;;;;0.30;0.30;;;;;;;16.22;100.00;96654.44;5081238;28;20103;-59
2023/10/20 03:55:30;;;;;;;0.30;0.30;;;;;;;16.22;100.00;96642.88;5089666;28;20029;-59
2023/10/20 03:57:55;;;;;;;0.38;0.38;;;;;;;16.26;100.00;96634.31;5090983;28;20499;-60
2023/10/20 04:00:31;;;;;;;0.30;0.30;;;;;;;16.23;100.00;96634.66;5090313;28;20035;-61
2023/10/20 04:02:56;;;;;;;0.32;0.32;;;;;;;16.22;100.00;96638.34;5078718;28;20082;-61
2023/10/20 04:05:23;;;;;;;0.32;0.32;;;;;;;16.22;100.00;96616.91;5070657;28;20033;-60
2023/10/20 04:07:49;;;;;;;0.40;0.40;;;;;;;16.20;100.00;96628.78;5070581;28;20153;-58
2023/10/20 04:10:14;;;;;;;0.40;0.40;;;;;;;16.20;100.00;96624.28;5080824;28;20482;-61
2023/10/20 04:12:41;;;;;;;0.40;0.40;;;;;;;16.21;100.00;96615.22;5073173;28;20116;-60
2023/10/20 04:15:19;;;;;;;0.40;0.40;;;;;;;16.22;100.00;96591.91;5069534;28;20413;-59
2023/10/20 04:17:55;;;;;;;0.40;0.40;;;;;;;16.22;100.00;96575.84;5086079;28;20035;-59
2023/10/20 04:20:21;;;;;;;0.40;0.40;;;;;;;16.16;100.00;96565.78;5089772;28;20503;-59
2023/10/20 04:22:50;;;;;;;0.40;0.40;;;;;;;16.19;100.00;96552.88;5090125;28;20124;-59
2023/10/20 04:25:20;;;;;;;0.30;0.30;;;;;;;16.17;100.00;96544.16;5090517;28;20038;-59
2023/10/20 04:27:50;;;;;;;0.40;0.40;;;;;;;16.16;100.00;96526.38;5078175;28;20081;-59
2023/10/20 04:52:52;;;;;;;0.40;0.40;;;;;;;16.25;100.00;96433.34;5070785;28;20078;-59
2023/10/20 05:02:40;;;;;;;0.40;0.40;;;;;;;16.27;100.00;96386.59;5072277;28;20028;-59
2023/10/20 05:05:15;;;;;;;0.40;0.40;;;;;;;16.30;100.00;96406.88;5069308;28;20028;-59
2023/10/20 05:07:49;;;;;;;0.40;0.40;;;;;;;16.32;100.00;96388.75;5069388;28;20495;-59
2023/10/20 05:10:14;;;;;;;0.40;0.40;;;;;;;16.30;100.00;96358.59;5071856;28;20115;-59
2023/10/20 05:12:40;;;;;;;0.40;0.40;;;;;;;16.31;100.00;96363.78;5069309;28;20172;-59
2023/10/20 05:15:06;;;;;;;0.40;0.40;;;;;;;16.32;100.00;96376.19;5070132;28;20065;-59
2023/10/20 05:17:34;;;;;;;0.35;0.35;;;;;;;16.35;100.00;96388.41;5072777;28;20476;-60
2023/10/20 05:19:59;;;;;;;0.40;0.40;;;;;;;16.35;100.00;96357.06;5070629;28;20028;-59
2023/10/20 05:22:26;;;;;;;0.40;0.40;;;;;;;16.36;100.00;96337.28;5083818;28;20349;-59
2023/10/20 05:24:51;;;;;;;0.30;0.30;;;;;;;16.38;100.00;96345.13;5090384;28;20032;-59
2023/10/20 05:27:17;;;;;;;0.40;0.40;;;;;;;16.36;100.00;96345.31;5090099;28;20031;-59
2023/10/20 05:29:42;;;;;;;0.30;0.30;;;;;;;16.38;100.00;96334.41;5090178;28;20024;-59
2023/10/20 05:32:07;;;;;;;0.38;0.38;;;;;;;16.42;100.00;96330.38;5077547;28;20121;-59
2023/10/20 05:34:34;;;;;;;0.40;0.40;;;;;;;16.43;100.00;96324.00;5069912;28;20093;-59
2023/10/20 05:37:00;;;;;;;0.40;0.40;;;;;;;16.46;100.00;96318.31;5072369;28;20032;-59
2023/10/20 05:39:25;;;;;;;0.20;0.20;;;;;;;16.45;100.00;96296.03;5069652;28;20031;-59
2023/10/20 05:41:50;;;;;;;0.30;0.30;;;;;;;16.45;100.00;96290.66;5069959;28;20029;-59
2023/10/20 05:44:21;;;;;;;0.40;0.40;;;;;;;16.48;100.00;96284.94;5084073;28;20146;-59
2023/10/20 05:46:47;;;;;;;0.40;0.40;;;;;;;16.46;100.00;96286.97;5089673;28;20035;-59
2023/10/20 05:49:13;;;;;;;0.40;0.40;;;;;;;16.46;100.00;96265.50;5089740;28;20032;-58
2023/10/20 05:51:38;;;;;;;0.30;0.30;;;;;;;16.47;100.00;96258.28;5086797;28;20427;-59
2023/10/20 05:54:04;;;;;;;0.40;0.40;;;;;;;16.47;100.00;96220.75;5087128;28;20035;-59
2023/10/20 05:56:30;;;;;;;0.40;0.40;;;;;;;16.47;100.00;96199.28;5088907;28;20028;-59
2023/10/20 05:58:55;;;;;;;0.40;0.40;;;;;;;16.49;100.00;96194.56;5076006;28;20388;-59
2023/10/20 06:01:21;;;;;;;0.40;0.40;;;;;;;16.52;100.00;96200.38;5071915;28;20031;-59
2023/10/20 06:03:46;;;;;;;0.40;0.40;;;;;;;16.54;100.00;96203.72;5085719;28;20024;-59
2023/10/20 06:06:11;;;;;;;0.40;0.40;;;;;;;16.54;100.00;96203.72;5068552;28;20028;-59
2023/10/20 06:08:37;;;;;;;0.40;0.40;;;;;;;16.56;100.00;96195.50;5080086;28;20486;-59
2023/10/20 06:11:03;;;;;;;0.30;0.30;;;;;;;16.57;100.00;96191.81;5075416;28;20028;-59
2023/10/20 06:13:30;;;;;;;0.40;0.40;;;;;;;16.58;100.00;96185.44;5069700;28;20111;-57
2023/10/20 06:15:56;;;;;;;0.40;0.40;;;;;;;16.59;100.00;96174.53;5069325;28;20024;-57
2023/10/20 06:18:22;;;;;;;0.40;0.40;;;;;;;16.59;100.00;96185.25;5084112;28;20024;-58
2023/10/20 06:20:47;;;;;;;0.40;0.40;;;;;;;16.63;100.00;96197.31;5087796;28;20444;-57
2023/10/20 06:23:13;;;;;;;0.40;0.40;;;;;;;16.66;100.00;96196.94;5089714;28;20049;-57
2023/10/20 06:25:38;;;;;;;0.40;0.40;;;;;;;16.66;100.00;96188.03;5078745;28;20054;-57
2023/10/20 06:28:04;;;;;;;0.40;0.40;;;;;;;16.68;100.00;96194.06;5067771;28;20099;-57
2023/10/20 06:30:30;;;;;;;0.40;0.40;;;;;;;16.68;100.00;96194.06;5068227;28;20123;-57
2023/10/20 06:36:16;;;;;;;0.40;0.40;;;;;;;16.76;100.00;96184.13;5087364;28;20101;-57
2023/10/20 06:38:35;;;;;;;0.32;0.32;;;;;;;16.71;100.00;96181.13;5070499;28;20051;-57
2023/10/20 06:41:01;;;;;;;0.40;0.40;;;;;;;16.71;100.00;96166.88;5069321;28;20131;-58
2023/10/20 06:43:27;;;;;;;0.40;0.40;;;;;;;16.74;100.00;96166.50;5077211;28;20499;-57
2023/10/20 06:46:00;;;;;;;0.40;0.40;;;;;;;16.73;100.00;96159.47;5075804;28;20040;-57
2023/10/20 06:48:26;;;;;;;0.40;0.40;;;;;;;16.75;100.00;96169.00;5075651;28;20027;-57
2023/10/20 06:50:52;;;;;;;0.40;0.40;;;;;;;16.79;100.00;96180.22;5077059;28;20468;-57
2023/10/20 06:53:18;;;;;;;0.40;0.40;;;;;;;16.77;100.00;96187.63;5083831;28;20024;-57
2023/10/20 06:55:45;;;;;;;0.40;0.40;;;;;;;16.78;100.00;96176.72;5094867;28;20385;-57
2023/10/20 06:58:10;;;;;;;0.40;0.40;;;;;;;16.81;100.00;96162.09;5092544;28;20078;-57
2023/10/20 07:00:36;;;;;;;0.32;0.32;;;;;;;16.81;100.00;96176.34;5075226;28;20455;-57
2023/10/20 07:03:02;;;;;;;0.40;0.40;;;;;;;16.85;100.00;96174.94;5073905;28;20139;-58
2023/10/20 07:05:27;;;;;;;0.40;0.40;;;;;;;16.87;100.00;96191.72;5076224;28;20028;-57
2023/10/20 07:07:53;;;;;;;0.30;0.30;;;;;;;16.86;100.00;96191.91;5074622;28;20033;-57
2023/10/20 07:10:21;;;;;;;0.40;0.40;;;;;;;16.87;100.00;96217.72;5074668;28;20109;-57
2023/10/20 07:12:47;;;;;;;0.40;0.40;;;;;;;16.85;100.00;96212.53;5082037;28;20095;-57
2023/10/20 07:15:13;;;;;;;0.40;0.40;;;;;;;16.85;100.00;96217.09;5075570;28;20020;-57
2023/10/20 07:17:38;;;;;;;0.40;0.40;;;;;;;16.87;100.00;96229.31;5075206;28;20031;-57
2023/10/20 07:20:05;;;;;;;0.40;0.40;;;;;;;16.88;100.00;96233.66;5077710;28;20024;-58
2023/10/20 07:22:31;;;;;;;0.40;0.40;;;;;;;16.89;100.00;96239.84;5087027;28;20063;-58
2023/10/20 07:24:57;;;;;;;0.40;0.40;;;;;;;16.88;100.00;96248.94;5095353;28;20057;-57
2023/10/20 07:27:22;;;;;;;0.40;0.40;;;;;;;16.97;100.00;96258.56;5093809;28;20123;-57
2023/10/20 07:29:48;;;;;;;0.30;0.30;;;;;;;17.01;100.00;96267.94;5077540;28;20035;-57
2023/10/20 07:32:13;;;;;;;0.30;0.30;;;;;;;17.06;100.00;96292.41;5075433;28;20530;-57
2023/10/20 07:34:39;;;;;;;0.30;0.30;;;;;;;17.06;100.00;96287.03;5075165;28;20062;-57
2023/10/20 07:37:06;;;;;;;0.30;0.30;;;;;;;17.11;100.00;96306.13;5059708;28;20035;-57
2023/10/20 07:39:33;;;;;;;0.38;0.38;;;;;;;17.13;100.00;96322.91;5085731;28;20024;-57
2023/10/20 07:41:59;;;;;;;0.40;0.40;;;;;;;17.11;100.00;96319.56;5095425;28;20028;-57
2023/10/20 07:44:24;;;;;;;0.30;0.30;;;;;;;17.13;100.00;96331.78;5083019;28;20553;-57
2023/10/20 07:46:50;;;;;;;0.40;0.40;;;;;;;17.10;100.00;96359.00;5074776;28;20440;-57
2023/10/20 07:49:16;;;;;;;0.40;0.40;;;;;;;17.12;100.00;96374.94;5082735;28;20447;-57
2023/10/20 07:51:41;;;;;;;0.40;0.40;;;;;;;17.08;100.00;96384.38;5076680;28;20472;-57
2023/10/20 07:54:08;;;;;;;0.40;0.40;;;;;;;17.08;100.00;96406.66;5088955;28;20066;-57
2023/10/20 07:56:34;;;;;;;0.30;0.30;;;;;;;17.09;100.00;96418.25;5081395;28;20032;-58
2023/10/20 07:58:59;;;;;;;0.40;0.40;;;;;;;17.10;100.00;96425.28;5085129;28;20059;-58
2023/10/20 08:01:25;;;;;;;0.30;0.30;;;;;;;17.17;100.00;96431.63;5089270;28;20028;-57
2023/10/20 08:03:52;;;;;;;0.30;0.30;;;;;;;17.19;100.00;96432.28;5091935;28;20023;-57
2023/10/20 08:06:18;;;;;;;0.30;0.30;;;;;;;17.21;100.00;96438.31;5084868;28;20043;-57
2023/10/20 08:08:44;;;;;;;0.40;0.40;;;;;;;17.23;100.00;96444.38;5071900;28;20081;-57
2023/10/20 08:11:10;;;;;;;0.40;0.40;;;;;;;17.24;100.00;96448.72;5087254;28;20045;-57
2023/10/20 08:13:37;;;;;;;0.40;0.40;;;;;;;17.26;100.00;96433.25;5069816;28;20028;-57
2023/10/20 08:16:04;;;;;;;0.30;0.30;;;;;;;17.32;100.00;96435.22;5070972;28;20024;-57
2023/10/20 08:18:33;;;;;;;0.32;0.32;;;;;;;17.32;100.00;96443.28;5071631;28;20407;-57
2023/10/20 08:21:09;;;;;;;0.30;0.30;;;;;;;17.35;100.00;96456.34;5068572;28;20718;-57
2023/10/20 08:23:37;;;;;;;0.40;0.40;;;;;;;17.38;100.00;96455.19;5062741;28;20025;-57
2023/10/20 08:26:03;;;;;;;0.40;0.40;;;;;;;17.38;100.00;96472.09;5070762;28;20056;-57
2023/10/20 08:28:28;;;;;;;0.30;0.30;;;;;;;17.39;100.00;96479.16;5066969;28;20040;-57
2023/10/20 08:31:16;;;;;;;0.40;0.40;;;;;;;17.40;100.00;96496.09;5050575;28;20035;-57
2023/10/20 08:33:42;;;;;;;0.40;0.40;;;;;;;17.41;100.00;96497.78;5050513;28;20531;-59
2023/10/20 08:36:20;;;;;;;0.35;0.35;;;;;;;17.37;100.00;96502.69;5057563;28;20032;-59
2023/10/20 08:38:48;;;;;;;0.40;0.40;;;;;;;17.42;100.00;96511.06;5057752;28;20050;-58
2023/10/20 08:41:17;;;;;;;0.40;0.40;;;;;;;17.41;100.00;96509.38;5050038;28;20029;-59
2023/10/20 08:43:44;;;;;;;0.30;0.30;;;;;;;17.46;100.00;96517.75;5050230;28;20035;-59
2023/10/20 08:46:11;;;;;;;0.40;0.40;;;;;;;17.41;100.00;96516.59;5049648;28;20094;-59
2023/10/20 08:48:57;;;;;;;0.38;0.38;;;;;;;17.37;100.00;96520.66;5064098;28;20029;-59
2023/10/20 08:51:23;;;;;;;0.40;0.40;;;;;;;17.35;100.00;96520.81;5069728;28;20028;-59
2023/10/20 08:53:48;;;;;;;0.30;0.30;;;;;;;17.33;100.00;96527.41;5069731;28;20032;-59
2023/10/20 08:56:14;;;;;;;0.40;0.40;;;;;;;17.30;100.00;96538.50;5067943;28;20032;-59
2023/10/20 08:58:39;;;;;;;0.30;0.30;;;;;;;17.32;100.00;96539.13;5069667;28;20117;-59
2023/10/20 09:01:06;;;;;;;0.30;0.30;;;;;;;17.34;100.00;96545.19;5070072;28;20077;-59
2023/10/20 09:03:44;;;;;;;0.30;0.30;;;;;;;17.41;100.00;96546.16;5070693;28;20092;-59
2023/10/20 09:06:14;;;;;;;0.30;0.30;;;;;;;17.37;100.00;96551.03;5060389;28;20029;-59
2023/10/20 09:08:47;;;;;;;0.35;0.35;;;;;;;17.38;100.00;96560.75;5052208;28;20680;-59
2023/10/20 09:11:12;;;;;;;0.40;0.40;;;;;;;17.43;100.00;96568.31;5053542;28;20455;-59
2023/10/20 09:13:40;;;;;;;0.30;0.30;;;;;;;17.43;100.00;96568.31;5072836;28;20025;-59
2023/10/20 09:16:11;;;;;;;0.40;0.40;;;;;;;17.45;100.00;96568.97;5070310;28;20031;-59
2023/10/20 09:18:44;;;;;;;0.40;0.40;;;;;;;17.51;100.00;96569.13;5069910;28;20041;-59
2023/10/20 09:21:12;;;;;;;0.40;0.40;;;;;;;17.57;100.00;96573.81;5069840;28;20395;-59
2023/10/20 09:23:39;;;;;;;0.40;0.40;;;;;;;17.56;100.00;96565.94;5087485;28;20499;-59
2023/10/20 09:26:04;;;;;;;0.40;0.40;;;;;;;17.60;100.00;96570.75;5089996;28;20035;-59
2023/10/20 09:28:30;;;;;;;0.30;0.30;;;;;;;17.72;100.00;96571.19;5089352;28;20024;-59
2023/10/20 09:30:56;;;;;;;0.40;0.40;;;;;;;17.75;100.00;96576.22;5085301;28;20050;-59
2023/10/20 09:33:23;;;;;;;0.30;0.30;;;;;;;17.79;100.00;96575.66;5088675;28;20039;-59
2023/10/20 09:35:51;;;;;;;0.30;0.30;;;;;;;17.76;100.00;96577.91;5087921;28;20024;-59
2023/10/20 09:38:20;;;;;;;0.30;0.30;;;;;;;17.77;100.00;96590.31;5072597;28;20103;-59
2023/10/20 09:40:46;;;;;;;0.30;0.30;;;;;;;17.87;100.00;96591.78;5068323;28;20032;-59
2023/10/20 09:43:30;;;;;;;0.35;0.35;;;;;;;17.94;100.00;96581.97;5070699;28;20032;-59
2023/10/20 09:46:07;;;;;;;0.30;0.30;;;;;;;18.05;100.00;96595.00;5082532;28;20459;-59
2023/10/20 09:48:35;;;;;;;0.30;0.30;;;;;;;18.14;100.00;96603.84;5068646;28;20400;-59
2023/10/20 09:51:01;;;;;;;0.30;0.30;;;;;;;18.16;100.00;96615.25;5075824;28;20497;-59
2023/10/20 09:53:28;;;;;;;0.30;0.30;;;;;;;18.20;100.00;96598.56;5085483;28;20035;-59
2023/10/20 09:55:54;;;;;;;0.30;0.30;;;;;;;18.19;100.00;96612.19;5089751;28;20658;-59
2023/10/20 09:58:26;;;;;;;0.38;0.38;;;;;;;18.23;100.00;96617.06;5089816;28;20080;-59
2023/10/20 10:00:51;;;;;;;0.40;0.40;;;;;;;18.31;100.00;96617.00;5087872;28;20047;-59
2023/10/20 10:03:42;;;;;;;0.30;0.30;;;;;;;18.37;100.00;96626.19;5071709;28;20476;-59
2023/10/20 10:06:12;;;;;;;0.30;0.30;;;;;;;18.45;100.00;96618.06;5069087;28;20078;-59
2023/10/20 10:08:39;;;;;;;0.30;0.30;;;;;;;18.44;100.00;96618.25;5086872;28;20031;-59
2023/10/20 10:11:27;;;;;;;0.30;0.30;;;;;;;18.47;100.00;96636.75;5088729;28;20562;-59
2023/10/20 10:14:01;;;;;;;0.30;0.30;;;;;;;18.52;100.00;96639.75;5079820;28;20162;-59
2023/10/20 10:16:27;;;;;;;0.30;0.30;;;;;;;18.43;100.00;96652.44;5086602;28;20016;-59
2023/10/20 10:18:54;;;;;;;0.30;0.30;;;;;;;18.32;100.00;96644.72;5088573;28;20024;-59
2023/10/20 10:21:29;;;;;;;0.20;0.20;;;;;;;18.27;100.00;96652.50;5087471;28;20161;-59
2023/10/20 10:24:25;;;;;;;0.30;0.30;;;;;;;18.28;100.00;96646.97;5086555;28;20028;-59
2023/10/20 10:26:56;;;;;;;0.30;0.30;;;;;;;18.24;100.00;96636.72;5067066;28;20040;-59
2023/10/20 10:29:53;;;;;;;0.30;0.30;;;;;;;18.42;100.00;96644.53;5070644;28;20154;-59
2023/10/20 10:32:22;;;;;;;0.30;0.30;;;;;;;18.49;100.00;96657.09;5070325;28;20085;-59
2023/10/20 10:34:49;;;;;;;0.40;0.40;;;;;;;18.60;100.00;96659.34;5067997;28;20082;-59
2023/10/20 10:37:35;;;;;;;0.30;0.30;;;;;;;18.63;100.00;96642.84;5071110;28;20495;-59
2023/10/20 10:40:13;;;;;;;0.40;0.40;;;;;;;18.56;100.00;96641.03;5074063;28;20479;-59
2023/10/20 10:42:45;;;;;;;0.30;0.30;;;;;;;18.57;100.00;96642.69;5089110;28;20027;-59
2023/10/20 10:45:16;;;;;;;0.30;0.30;;;;;;;18.83;100.00;96643.16;5072339;28;20036;-59
2023/10/20 10:47:42;;;;;;;0.30;0.30;;;;;;;18.90;100.00;96647.63;5068941;28;20043;-60
2023/10/20 10:50:07;;;;;;;0.30;0.30;;;;;;;19.09;100.00;96638.19;5069275;28;20028;-58
2023/10/20 10:52:33;;;;;;;0.30;0.30;;;;;;;19.54;100.00;96638.00;5070228;28;20085;-57
2023/10/20 10:55:05;;;;;;;0.30;0.30;;;;;;;19.44;100.00;96648.25;5075654;28;20024;-56
2023/10/20 10:57:31;;;;;;;0.25;0.25;;;;;;;19.73;100.00;96648.22;5079846;28;20060;-56
2023/10/20 10:59:57;;;;;;;0.30;0.30;;;;;;;20.19;100.00;96638.84;5070686;28;20519;-56
2023/10/20 11:02:22;;;;;;;0.30;0.30;;;;;;;20.60;97.77;96637.19;5068460;28;20112;-56
2023/10/20 11:04:48;;;;;;;0.20;0.20;;;;;;;20.54;95.47;96647.91;5068381;28;20035;-56
2023/10/20 11:07:14;;;;;;;0.30;0.30;;;;;;;20.87;95.93;96644.47;5080228;28;20067;-57
2023/10/20 11:09:41;;;;;;;0.20;0.20;;;;;;;21.44;93.75;96649.69;5062720;28;20113;-56
2023/10/20 11:12:10;;;;;;;0.20;0.20;;;;;;;22.01;90.20;96633.13;5087912;28;20056;-57
2023/10/20 11:14:38;;;;;;;0.20;0.20;;;;;;;22.25;86.28;96627.16;5085063;28;20050;-56
2023/10/20 11:17:04;;;;;;;0.20;0.20;;;;;;;21.93;86.38;96620.59;5072888;28;20124;-56
2023/10/20 11:19:29;;;;;;;0.30;0.30;;;;;;;21.48;87.50;96615.78;5066203;28;20028;-57
2023/10/20 11:21:55;;;;;;;0.20;0.20;;;;;;;20.97;89.29;96627.09;5075354;28;20063;-56
2023/10/20 11:24:34;;;;;;;0.20;0.20;;;;;;;20.63;92.15;96636.78;5073732;28;20036;-57
2023/10/20 11:27:05;;;;;;;0.20;0.20;;;;;;;20.77;93.03;96645.84;5066207;28;20510;-57
2023/10/20 11:29:32;;;;;;;0.20;0.20;;;;;;;21.04;93.67;96652.34;5069831;28;20028;-57
2023/10/20 11:32:05;;;;;;;0.22;0.22;;;;;;;21.02;91.97;96667.91;5070804;28;20111;-57
2023/10/20 11:34:32;;;;;;;0.20;0.20;;;;;;;21.31;91.42;96660.41;5072399;28;20059;-57
2023/10/20 11:36:58;;;;;;;0.20;0.20;;;;;;;21.82;87.86;96661.78;5073728;28;20033;-57
2023/10/20 11:39:27;;;;;;;0.15;0.15;;;;;;;22.58;86.06;96663.31;5072525;28;20036;-57
2023/10/20 11:41:56;;;;;;;0.20;0.20;;;;;;;22.75;84.33;96674.59;5074258;28;20028;-57
2023/10/20 11:44:24;;;;;;;0.20;0.20;;;;;;;22.17;83.46;96689.63;5091689;28;20399;-57
2023/10/20 11:46:53;;;;;;;0.20;0.20;;;;;;;21.65;85.41;96692.03;5091701;28;20082;-57
2023/10/20 11:49:24;;;;;;;0.20;0.20;;;;;;;21.13;87.99;96703.34;5090375;28;20051;-57
2023/10/20 11:51:50;;;;;;;0.20;0.20;;;;;;;20.69;90.63;96700.81;5074589;28;20052;-57
2023/10/20 11:54:16;;;;;;;0.20;0.20;;;;;;;20.32;93.20;96708.31;5075294;28;20061;-57
2023/10/20 11:56:41;;;;;;;0.20;0.20;;;;;;;20.15;94.73;96713.09;5092003;28;20024;-57
2023/10/20 11:59:08;;;;;;;0.20;0.20;;;;;;;19.99;95.06;96732.19;5086256;28;20026;-56
2023/10/20 12:01:33;;;;;;;0.30;0.30;;;;;;;19.85;96.73;96730.31;5072502;28;20028;-57